sensor_id;sensor_type;location;lat;lon;timestamp;P1;durP1;ratioP1;P2;durP2;ratioP2
78324;SDS011;67584;51.400;6.692;2023-07-29T00:01:30;4.65;;;2.45;;
78324;SDS011;67584;51.400;6.692;2023-07-29T00:03:56;4.03;;;2.65;;
78324;SDS011;67584;51.400;6.692;2023-07-29T00:06:21;3.83;;;3.00;;
78324;SDS011;67584;51.400;6.692;2023-07-29T00:08:47;4.28;;;3.22;;
78324;SDS011;67584;51.400;6.692;2023-07-29T00:11:13;4.50;;;3.20;;
78324;SDS011;67584;51.400;6.692;2023-07-29T00:13:38;5.07;;;2.83;;
78324;SDS011;67584;51.400;6.692;2023-07-29T00:16:04;3.35;;;2.92;;
78324;SDS011;67584;51.400;6.692;2023-07-29T00:18:30;4.85;;;2.90;;
78324;SDS011;67584;51.400;6.692;2023-07-29T00:20:56;4.47;;;2.80;;
78324;SDS011;67584;51.400;6.692;2023-07-29T00:23:22;4.70;;;2.78;;
78324;SDS011;67584;51.400;6.692;2023-07-29T00:25:48;4.15;;;2.60;;
78324;SDS011;67584;51.400;6.692;2023-07-29T00:28:14;4.78;;;2.63;;
78324;SDS011;67584;51.400;6.692;2023-07-29T00:30:40;3.75;;;3.00;;
78324;SDS011;67584;51.400;6.692;2023-07-29T00:33:05;6.07;;;3.53;;
78324;SDS011;67584;51.400;6.692;2023-07-29T00:35:31;6.55;;;3.10;;
78324;SDS011;67584;51.400;6.692;2023-07-29T00:37:59;6.35;;;3.55;;
78324;SDS011;67584;51.400;6.692;2023-07-29T00:40:25;4.95;;;2.95;;
78324;SDS011;67584;51.400;6.692;2023-07-29T00:42:53;4.70;;;3.13;;
78324;SDS011;67584;51.400;6.692;2023-07-29T00:45:19;3.40;;;2.42;;
78324;SDS011;67584;51.400;6.692;2023-07-29T00:47:45;5.68;;;2.90;;
78324;SDS011;67584;51.400;6.692;2023-07-29T00:50:12;4.13;;;3.03;;
78324;SDS011;67584;51.400;6.692;2023-07-29T00:52:39;6.63;;;2.70;;
78324;SDS011;67584;51.400;6.692;2023-07-29T00:55:06;5.43;;;2.60;;
78324;SDS011;67584;51.400;6.692;2023-07-29T00:57:32;3.22;;;2.70;;
78324;SDS011;67584;51.400;6.692;2023-07-29T00:59:58;9.52;;;3.50;;
78324;SDS011;67584;51.400;6.692;2023-07-29T01:02:25;4.15;;;2.90;;
78324;SDS011;67584;51.400;6.692;2023-07-29T01:04:58;3.05;;;2.67;;
78324;SDS011;67584;51.400;6.692;2023-07-29T01:10:03;4.43;;;2.58;;
78324;SDS011;67584;51.400;6.692;2023-07-29T01:15:42;2.90;;;2.53;;
78324;SDS011;67584;51.400;6.692;2023-07-29T01:18:24;3.83;;;2.35;;
78324;SDS011;67584;51.400;6.692;2023-07-29T01:20:54;3.88;;;3.08;;
78324;SDS011;67584;51.400;6.692;2023-07-29T01:23:30;3.00;;;2.65;;
78324;SDS011;67584;51.400;6.692;2023-07-29T01:25:57;3.67;;;2.80;;
78324;SDS011;67584;51.400;6.692;2023-07-29T01:28:23;4.13;;;2.75;;
78324;SDS011;67584;51.400;6.692;2023-07-29T01:30:51;3.60;;;2.42;;
78324;SDS011;67584;51.400;6.692;2023-07-29T01:33:26;2.65;;;2.40;;
78324;SDS011;67584;51.400;6.692;2023-07-29T01:35:57;3.25;;;2.95;;
78324;SDS011;67584;51.400;6.692;2023-07-29T01:38:28;3.80;;;2.50;;
78324;SDS011;67584;51.400;6.692;2023-07-29T01:40:59;3.65;;;2.97;;
78324;SDS011;67584;51.400;6.692;2023-07-29T01:48:19;3.20;;;2.88;;
78324;SDS011;67584;51.400;6.692;2023-07-29T01:50:45;3.42;;;3.13;;
78324;SDS011;67584;51.400;6.692;2023-07-29T01:53:10;5.13;;;3.40;;
78324;SDS011;67584;51.400;6.692;2023-07-29T01:55:36;3.63;;;2.78;;
78324;SDS011;67584;51.400;6.692;2023-07-29T01:58:02;3.83;;;2.90;;
78324;SDS011;67584;51.400;6.692;2023-07-29T02:00:28;4.93;;;2.97;;
78324;SDS011;67584;51.400;6.692;2023-07-29T02:02:53;5.95;;;3.40;;
78324;SDS011;67584;51.400;6.692;2023-07-29T02:05:19;6.45;;;3.90;;
78324;SDS011;67584;51.400;6.692;2023-07-29T02:07:45;6.00;;;3.58;;
78324;SDS011;67584;51.400;6.692;2023-07-29T02:10:10;4.05;;;3.13;;
78324;SDS011;67584;51.400;6.692;2023-07-29T02:12:36;3.70;;;3.40;;
78324;SDS011;67584;51.400;6.692;2023-07-29T02:15:02;4.05;;;2.72;;
78324;SDS011;67584;51.400;6.692;2023-07-29T02:17:29;7.90;;;3.47;;
78324;SDS011;67584;51.400;6.692;2023-07-29T02:19:55;5.32;;;3.30;;
78324;SDS011;67584;51.400;6.692;2023-07-29T02:22:21;8.55;;;3.25;;
78324;SDS011;67584;51.400;6.692;2023-07-29T02:24:46;5.47;;;3.17;;
78324;SDS011;67584;51.400;6.692;2023-07-29T02:27:12;4.07;;;3.67;;
78324;SDS011;67584;51.400;6.692;2023-07-29T02:29:38;3.95;;;3.35;;
78324;SDS011;67584;51.400;6.692;2023-07-29T02:32:03;4.53;;;3.42;;
78324;SDS011;67584;51.400;6.692;2023-07-29T02:34:29;5.38;;;3.70;;
78324;SDS011;67584;51.400;6.692;2023-07-29T02:36:55;4.53;;;3.60;;
78324;SDS011;67584;51.400;6.692;2023-07-29T02:39:21;7.40;;;3.90;;
78324;SDS011;67584;51.400;6.692;2023-07-29T02:41:48;6.80;;;3.75;;
78324;SDS011;67584;51.400;6.692;2023-07-29T02:44:14;5.95;;;3.90;;
78324;SDS011;67584;51.400;6.692;2023-07-29T02:46:41;12.23;;;3.67;;
78324;SDS011;67584;51.400;6.692;2023-07-29T02:49:06;5.28;;;4.25;;
78324;SDS011;67584;51.400;6.692;2023-07-29T02:51:32;4.80;;;3.65;;
78324;SDS011;67584;51.400;6.692;2023-07-29T02:53:58;3.97;;;3.35;;
78324;SDS011;67584;51.400;6.692;2023-07-29T02:56:23;5.50;;;3.17;;
78324;SDS011;67584;51.400;6.692;2023-07-29T02:58:49;5.22;;;3.40;;
78324;SDS011;67584;51.400;6.692;2023-07-29T03:01:18;4.20;;;3.10;;
78324;SDS011;67584;51.400;6.692;2023-07-29T03:03:43;5.30;;;3.08;;
78324;SDS011;67584;51.400;6.692;2023-07-29T03:06:10;4.10;;;3.10;;
78324;SDS011;67584;51.400;6.692;2023-07-29T03:08:38;4.10;;;3.08;;
78324;SDS011;67584;51.400;6.692;2023-07-29T03:11:08;6.45;;;3.42;;
78324;SDS011;67584;51.400;6.692;2023-07-29T03:13:38;4.25;;;3.00;;
78324;SDS011;67584;51.400;6.692;2023-07-29T03:16:04;4.55;;;3.25;;
78324;SDS011;67584;51.400;6.692;2023-07-29T03:18:35;4.30;;;3.22;;
78324;SDS011;67584;51.400;6.692;2023-07-29T03:21:01;4.05;;;3.33;;
78324;SDS011;67584;51.400;6.692;2023-07-29T03:23:27;5.70;;;3.28;;
78324;SDS011;67584;51.400;6.692;2023-07-29T03:25:57;3.72;;;3.05;;
78324;SDS011;67584;51.400;6.692;2023-07-29T03:28:24;4.15;;;3.20;;
78324;SDS011;67584;51.400;6.692;2023-07-29T03:30:52;3.60;;;3.20;;
78324;SDS011;67584;51.400;6.692;2023-07-29T03:33:18;5.82;;;2.75;;
78324;SDS011;67584;51.400;6.692;2023-07-29T03:35:44;3.65;;;3.15;;
78324;SDS011;67584;51.400;6.692;2023-07-29T03:38:10;4.10;;;3.33;;
78324;SDS011;67584;51.400;6.692;2023-07-29T03:40:37;5.72;;;3.30;;
78324;SDS011;67584;51.400;6.692;2023-07-29T03:43:03;4.03;;;3.03;;
78324;SDS011;67584;51.400;6.692;2023-07-29T03:45:29;4.55;;;3.30;;
78324;SDS011;67584;51.400;6.692;2023-07-29T03:47:55;4.00;;;3.33;;
78324;SDS011;67584;51.400;6.692;2023-07-29T03:50:21;4.60;;;3.58;;
78324;SDS011;67584;51.400;6.692;2023-07-29T03:52:47;3.72;;;3.33;;
78324;SDS011;67584;51.400;6.692;2023-07-29T03:55:12;4.13;;;3.20;;
78324;SDS011;67584;51.400;6.692;2023-07-29T03:57:38;3.60;;;3.17;;
78324;SDS011;67584;51.400;6.692;2023-07-29T04:00:04;4.60;;;3.22;;
78324;SDS011;67584;51.400;6.692;2023-07-29T04:02:41;4.32;;;3.60;;
78324;SDS011;67584;51.400;6.692;2023-07-29T04:05:07;4.90;;;3.53;;
78324;SDS011;67584;51.400;6.692;2023-07-29T04:07:34;5.60;;;3.60;;
78324;SDS011;67584;51.400;6.692;2023-07-29T04:10:00;4.93;;;3.53;;
78324;SDS011;67584;51.400;6.692;2023-07-29T04:12:27;8.98;;;3.67;;
78324;SDS011;67584;51.400;6.692;2023-07-29T04:14:53;7.93;;;4.10;;
78324;SDS011;67584;51.400;6.692;2023-07-29T04:17:19;4.43;;;3.65;;
78324;SDS011;67584;51.400;6.692;2023-07-29T04:19:45;3.80;;;3.38;;
78324;SDS011;67584;51.400;6.692;2023-07-29T04:22:10;4.40;;;3.65;;
78324;SDS011;67584;51.400;6.692;2023-07-29T04:24:36;5.15;;;3.40;;
78324;SDS011;67584;51.400;6.692;2023-07-29T04:27:03;4.38;;;3.65;;
78324;SDS011;67584;51.400;6.692;2023-07-29T04:29:29;4.25;;;3.47;;
78324;SDS011;67584;51.400;6.692;2023-07-29T04:31:55;4.00;;;3.60;;
78324;SDS011;67584;51.400;6.692;2023-07-29T04:34:20;4.00;;;3.60;;
78324;SDS011;67584;51.400;6.692;2023-07-29T04:36:46;4.28;;;3.72;;
78324;SDS011;67584;51.400;6.692;2023-07-29T04:39:12;7.13;;;4.05;;
78324;SDS011;67584;51.400;6.692;2023-07-29T04:41:38;7.22;;;4.13;;
78324;SDS011;67584;51.400;6.692;2023-07-29T04:44:04;5.07;;;3.92;;
78324;SDS011;67584;51.400;6.692;2023-07-29T04:46:31;4.65;;;4.18;;
78324;SDS011;67584;51.400;6.692;2023-07-29T04:48:57;4.75;;;4.25;;
78324;SDS011;67584;51.400;6.692;2023-07-29T04:51:23;4.55;;;3.72;;
78324;SDS011;67584;51.400;6.692;2023-07-29T04:53:49;5.88;;;4.22;;
78324;SDS011;67584;51.400;6.692;2023-07-29T04:56:15;5.68;;;4.30;;
78324;SDS011;67584;51.400;6.692;2023-07-29T04:58:41;5.07;;;4.38;;
78324;SDS011;67584;51.400;6.692;2023-07-29T05:01:07;4.78;;;4.22;;
78324;SDS011;67584;51.400;6.692;2023-07-29T05:03:33;4.68;;;3.80;;
78324;SDS011;67584;51.400;6.692;2023-07-29T05:05:59;5.65;;;4.25;;
78324;SDS011;67584;51.400;6.692;2023-07-29T05:08:26;4.97;;;3.67;;
78324;SDS011;67584;51.400;6.692;2023-07-29T05:10:52;5.28;;;3.85;;
78324;SDS011;67584;51.400;6.692;2023-07-29T05:13:19;5.35;;;3.65;;
78324;SDS011;67584;51.400;6.692;2023-07-29T05:15:46;4.47;;;3.10;;
78324;SDS011;67584;51.400;6.692;2023-07-29T05:18:12;4.85;;;3.40;;
78324;SDS011;67584;51.400;6.692;2023-07-29T05:20:38;4.43;;;2.92;;
78324;SDS011;67584;51.400;6.692;2023-07-29T05:23:04;3.53;;;2.90;;
78324;SDS011;67584;51.400;6.692;2023-07-29T05:25:30;3.35;;;3.03;;
78324;SDS011;67584;51.400;6.692;2023-07-29T05:27:55;4.38;;;3.30;;
78324;SDS011;67584;51.400;6.692;2023-07-29T05:30:22;3.55;;;2.50;;
78324;SDS011;67584;51.400;6.692;2023-07-29T05:32:48;3.92;;;2.88;;
78324;SDS011;67584;51.400;6.692;2023-07-29T05:35:14;3.78;;;2.50;;
78324;SDS011;67584;51.400;6.692;2023-07-29T05:37:40;4.22;;;2.65;;
78324;SDS011;67584;51.400;6.692;2023-07-29T05:40:06;4.40;;;2.53;;
78324;SDS011;67584;51.400;6.692;2023-07-29T05:42:33;3.28;;;2.42;;
78324;SDS011;67584;51.400;6.692;2023-07-29T05:44:59;3.95;;;2.80;;
78324;SDS011;67584;51.400;6.692;2023-07-29T05:47:25;2.70;;;2.35;;
78324;SDS011;67584;51.400;6.692;2023-07-29T05:49:51;3.70;;;2.75;;
78324;SDS011;67584;51.400;6.692;2023-07-29T05:52:17;4.38;;;2.50;;
78324;SDS011;67584;51.400;6.692;2023-07-29T05:54:43;3.10;;;2.42;;
78324;SDS011;67584;51.400;6.692;2023-07-29T05:57:09;3.63;;;2.85;;
78324;SDS011;67584;51.400;6.692;2023-07-29T05:59:35;4.38;;;2.75;;
78324;SDS011;67584;51.400;6.692;2023-07-29T06:02:01;3.70;;;2.45;;
78324;SDS011;67584;51.400;6.692;2023-07-29T06:04:27;2.90;;;2.60;;
78324;SDS011;67584;51.400;6.692;2023-07-29T06:06:53;4.22;;;2.35;;
78324;SDS011;67584;51.400;6.692;2023-07-29T06:09:20;3.78;;;2.67;;
78324;SDS011;67584;51.400;6.692;2023-07-29T06:11:46;3.35;;;2.92;;
78324;SDS011;67584;51.400;6.692;2023-07-29T06:14:12;3.28;;;2.45;;
78324;SDS011;67584;51.400;6.692;2023-07-29T06:16:40;3.10;;;2.53;;
78324;SDS011;67584;51.400;6.692;2023-07-29T06:19:05;3.22;;;2.00;;
78324;SDS011;67584;51.400;6.692;2023-07-29T06:21:33;2.75;;;1.90;;
78324;SDS011;67584;51.400;6.692;2023-07-29T06:24:00;3.30;;;2.50;;
78324;SDS011;67584;51.400;6.692;2023-07-29T06:26:26;3.60;;;2.20;;
78324;SDS011;67584;51.400;6.692;2023-07-29T06:28:52;3.85;;;2.20;;
78324;SDS011;67584;51.400;6.692;2023-07-29T06:31:18;2.42;;;2.00;;
78324;SDS011;67584;51.400;6.692;2023-07-29T06:33:43;3.83;;;2.50;;
78324;SDS011;67584;51.400;6.692;2023-07-29T06:36:09;3.38;;;2.70;;
78324;SDS011;67584;51.400;6.692;2023-07-29T06:38:34;2.95;;;2.00;;
78324;SDS011;67584;51.400;6.692;2023-07-29T06:41:00;2.40;;;2.15;;
78324;SDS011;67584;51.400;6.692;2023-07-29T06:43:26;2.90;;;1.90;;
78324;SDS011;67584;51.400;6.692;2023-07-29T06:45:51;3.83;;;2.22;;
78324;SDS011;67584;51.400;6.692;2023-07-29T06:48:17;2.97;;;2.22;;
78324;SDS011;67584;51.400;6.692;2023-07-29T06:50:44;3.40;;;2.00;;
78324;SDS011;67584;51.400;6.692;2023-07-29T06:53:09;2.40;;;1.80;;
78324;SDS011;67584;51.400;6.692;2023-07-29T06:55:35;2.85;;;2.10;;
78324;SDS011;67584;51.400;6.692;2023-07-29T06:58:01;7.00;;;3.10;;
78324;SDS011;67584;51.400;6.692;2023-07-29T07:00:27;2.42;;;1.83;;
78324;SDS011;67584;51.400;6.692;2023-07-29T07:02:52;1.67;;;1.50;;
78324;SDS011;67584;51.400;6.692;2023-07-29T07:05:18;4.05;;;2.20;;
78324;SDS011;67584;51.400;6.692;2023-07-29T07:07:44;7.13;;;2.00;;
78324;SDS011;67584;51.400;6.692;2023-07-29T07:10:09;3.85;;;1.83;;
78324;SDS011;67584;51.400;6.692;2023-07-29T07:12:35;2.13;;;1.60;;
78324;SDS011;67584;51.400;6.692;2023-07-29T07:15:01;3.25;;;1.92;;
78324;SDS011;67584;51.400;6.692;2023-07-29T07:17:26;4.60;;;2.67;;
78324;SDS011;67584;51.400;6.692;2023-07-29T07:19:52;2.75;;;1.60;;
78324;SDS011;67584;51.400;6.692;2023-07-29T07:22:18;2.22;;;1.60;;
78324;SDS011;67584;51.400;6.692;2023-07-29T07:24:44;2.80;;;2.25;;
78324;SDS011;67584;51.400;6.692;2023-07-29T07:27:09;2.10;;;1.70;;
78324;SDS011;67584;51.400;6.692;2023-07-29T07:29:35;3.10;;;1.80;;
78324;SDS011;67584;51.400;6.692;2023-07-29T07:32:00;2.30;;;1.85;;
78324;SDS011;67584;51.400;6.692;2023-07-29T07:34:27;6.68;;;1.70;;
78324;SDS011;67584;51.400;6.692;2023-07-29T07:36:53;6.13;;;2.20;;
78324;SDS011;67584;51.400;6.692;2023-07-29T07:39:18;3.65;;;1.83;;
78324;SDS011;67584;51.400;6.692;2023-07-29T07:41:44;3.30;;;1.73;;
78324;SDS011;67584;51.400;6.692;2023-07-29T07:44:10;2.25;;;1.77;;
78324;SDS011;67584;51.400;6.692;2023-07-29T07:46:37;1.75;;;1.48;;
78324;SDS011;67584;51.400;6.692;2023-07-29T07:49:03;1.77;;;1.40;;
78324;SDS011;67584;51.400;6.692;2023-07-29T07:51:29;1.58;;;1.30;;
78324;SDS011;67584;51.400;6.692;2023-07-29T07:53:55;2.10;;;1.50;;
78324;SDS011;67584;51.400;6.692;2023-07-29T07:56:20;1.60;;;1.30;;
78324;SDS011;67584;51.400;6.692;2023-07-29T07:58:46;1.92;;;1.42;;
78324;SDS011;67584;51.400;6.692;2023-07-29T08:01:11;2.38;;;1.50;;
78324;SDS011;67584;51.400;6.692;2023-07-29T08:03:37;2.28;;;1.60;;
78324;SDS011;67584;51.400;6.692;2023-07-29T08:06:03;1.90;;;1.65;;
78324;SDS011;67584;51.400;6.692;2023-07-29T08:08:30;2.25;;;1.63;;
78324;SDS011;67584;51.400;6.692;2023-07-29T08:10:56;2.08;;;1.50;;
78324;SDS011;67584;51.400;6.692;2023-07-29T08:13:23;3.03;;;1.58;;
78324;SDS011;67584;51.400;6.692;2023-07-29T08:15:49;1.58;;;1.40;;
78324;SDS011;67584;51.400;6.692;2023-07-29T08:18:16;2.22;;;1.70;;
78324;SDS011;67584;51.400;6.692;2023-07-29T08:21:16;1.33;;;1.23;;
78324;SDS011;67584;51.400;6.692;2023-07-29T08:23:35;2.70;;;1.52;;
78324;SDS011;67584;51.400;6.692;2023-07-29T08:26:02;1.60;;;1.40;;
78324;SDS011;67584;51.400;6.692;2023-07-29T08:28:34;1.85;;;1.50;;
78324;SDS011;67584;51.400;6.692;2023-07-29T08:31:01;3.17;;;1.40;;
78324;SDS011;67584;51.400;6.692;2023-07-29T08:33:27;2.28;;;1.40;;
78324;SDS011;67584;51.400;6.692;2023-07-29T08:35:53;1.67;;;1.27;;
78324;SDS011;67584;51.400;6.692;2023-07-29T08:38:20;1.73;;;1.35;;
78324;SDS011;67584;51.400;6.692;2023-07-29T08:41:32;2.33;;;1.23;;
78324;SDS011;67584;51.400;6.692;2023-07-29T08:43:52;2.00;;;1.25;;
78324;SDS011;67584;51.400;6.692;2023-07-29T08:46:24;1.52;;;1.30;;
78324;SDS011;67584;51.400;6.692;2023-07-29T08:48:51;2.40;;;1.60;;
78324;SDS011;67584;51.400;6.692;2023-07-29T08:51:17;1.38;;;1.27;;
78324;SDS011;67584;51.400;6.692;2023-07-29T08:53:44;1.65;;;1.38;;
78324;SDS011;67584;51.400;6.692;2023-07-29T08:56:11;1.80;;;1.30;;
78324;SDS011;67584;51.400;6.692;2023-07-29T08:58:37;1.88;;;1.45;;
78324;SDS011;67584;51.400;6.692;2023-07-29T09:01:04;2.88;;;1.50;;
78324;SDS011;67584;51.400;6.692;2023-07-29T09:03:30;1.40;;;1.30;;
78324;SDS011;67584;51.400;6.692;2023-07-29T09:05:56;1.98;;;1.50;;
78324;SDS011;67584;51.400;6.692;2023-07-29T09:08:23;2.92;;;1.42;;
78324;SDS011;67584;51.400;6.692;2023-07-29T09:10:53;1.45;;;1.25;;
78324;SDS011;67584;51.400;6.692;2023-07-29T09:13:20;6.45;;;1.90;;
78324;SDS011;67584;51.400;6.692;2023-07-29T09:15:46;1.60;;;1.33;;
78324;SDS011;67584;51.400;6.692;2023-07-29T09:18:16;2.40;;;1.52;;
78324;SDS011;67584;51.400;6.692;2023-07-29T09:20:44;1.90;;;1.55;;
78324;SDS011;67584;51.400;6.692;2023-07-29T09:23:12;2.95;;;1.40;;
78324;SDS011;67584;51.400;6.692;2023-07-29T09:25:39;2.22;;;1.70;;
78324;SDS011;67584;51.400;6.692;2023-07-29T09:28:12;2.40;;;1.55;;
78324;SDS011;67584;51.400;6.692;2023-07-29T09:30:39;2.50;;;1.98;;
78324;SDS011;67584;51.400;6.692;2023-07-29T09:33:05;2.38;;;1.70;;
78324;SDS011;67584;51.400;6.692;2023-07-29T09:35:32;3.83;;;1.60;;
78324;SDS011;67584;51.400;6.692;2023-07-29T09:37:59;1.98;;;1.20;;
78324;SDS011;67584;51.400;6.692;2023-07-29T09:40:25;2.08;;;1.63;;
78324;SDS011;67584;51.400;6.692;2023-07-29T09:42:51;2.90;;;1.77;;
78324;SDS011;67584;51.400;6.692;2023-07-29T09:45:24;3.30;;;1.75;;
78324;SDS011;67584;51.400;6.692;2023-07-29T09:47:51;3.30;;;1.80;;
78324;SDS011;67584;51.400;6.692;2023-07-29T09:50:18;7.07;;;2.03;;
78324;SDS011;67584;51.400;6.692;2023-07-29T09:52:44;3.80;;;1.75;;
78324;SDS011;67584;51.400;6.692;2023-07-29T09:55:11;4.78;;;1.65;;
78324;SDS011;67584;51.400;6.692;2023-07-29T09:57:39;4.13;;;1.58;;
78324;SDS011;67584;51.400;6.692;2023-07-29T10:00:05;2.10;;;1.70;;
78324;SDS011;67584;51.400;6.692;2023-07-29T10:02:36;1.70;;;1.50;;
78324;SDS011;67584;51.400;6.692;2023-07-29T10:05:06;2.50;;;1.50;;
78324;SDS011;67584;51.400;6.692;2023-07-29T10:07:33;2.20;;;1.67;;
78324;SDS011;67584;51.400;6.692;2023-07-29T10:10:06;3.08;;;1.60;;
78324;SDS011;67584;51.400;6.692;2023-07-29T10:12:33;2.42;;;1.55;;
78324;SDS011;67584;51.400;6.692;2023-07-29T10:15:02;1.98;;;1.48;;
78324;SDS011;67584;51.400;6.692;2023-07-29T10:17:29;2.40;;;1.80;;
78324;SDS011;67584;51.400;6.692;2023-07-29T10:19:56;2.20;;;1.70;;
78324;SDS011;67584;51.400;6.692;2023-07-29T10:22:24;2.40;;;1.60;;
78324;SDS011;67584;51.400;6.692;2023-07-29T10:24:56;2.33;;;1.60;;
78324;SDS011;67584;51.400;6.692;2023-07-29T10:27:26;2.03;;;1.65;;
78324;SDS011;67584;51.400;6.692;2023-07-29T10:29:54;2.63;;;1.83;;
78324;SDS011;67584;51.400;6.692;2023-07-29T10:32:22;2.65;;;1.52;;
78324;SDS011;67584;51.400;6.692;2023-07-29T10:34:51;2.45;;;1.80;;
78324;SDS011;67584;51.400;6.692;2023-07-29T10:37:17;2.40;;;1.65;;
78324;SDS011;67584;51.400;6.692;2023-07-29T10:39:51;1.73;;;1.60;;
78324;SDS011;67584;51.400;6.692;2023-07-29T10:42:19;2.38;;;1.80;;
78324;SDS011;67584;51.400;6.692;2023-07-29T10:47:18;1.90;;;1.50;;
78324;SDS011;67584;51.400;6.692;2023-07-29T10:49:50;2.15;;;1.50;;
78324;SDS011;67584;51.400;6.692;2023-07-29T10:52:27;2.00;;;1.52;;
78324;SDS011;67584;51.400;6.692;2023-07-29T10:54:55;4.82;;;2.20;;
78324;SDS011;67584;51.400;6.692;2023-07-29T10:57:37;2.83;;;1.83;;
78324;SDS011;67584;51.400;6.692;2023-07-29T11:00:06;2.40;;;1.67;;
78324;SDS011;67584;51.400;6.692;2023-07-29T11:02:32;2.00;;;1.70;;
78324;SDS011;67584;51.400;6.692;2023-07-29T11:05:05;2.17;;;1.90;;
78324;SDS011;67584;51.400;6.692;2023-07-29T11:07:42;3.13;;;1.63;;
78324;SDS011;67584;51.400;6.692;2023-07-29T11:10:15;5.63;;;2.08;;
78324;SDS011;67584;51.400;6.692;2023-07-29T11:12:47;2.35;;;1.80;;
78324;SDS011;67584;51.400;6.692;2023-07-29T11:15:20;2.13;;;1.65;;
78324;SDS011;67584;51.400;6.692;2023-07-29T11:17:53;2.00;;;1.58;;
78324;SDS011;67584;51.400;6.692;2023-07-29T11:20:27;2.88;;;2.17;;
78324;SDS011;67584;51.400;6.692;2023-07-29T11:22:55;2.58;;;1.80;;
78324;SDS011;67584;51.400;6.692;2023-07-29T11:25:23;3.50;;;1.77;;
78324;SDS011;67584;51.400;6.692;2023-07-29T11:27:54;3.58;;;1.83;;
78324;SDS011;67584;51.400;6.692;2023-07-29T11:30:21;2.22;;;1.75;;
78324;SDS011;67584;51.400;6.692;2023-07-29T11:32:54;1.95;;;1.70;;
78324;SDS011;67584;51.400;6.692;2023-07-29T11:35:21;3.13;;;1.80;;
78324;SDS011;67584;51.400;6.692;2023-07-29T11:37:47;2.42;;;1.83;;
78324;SDS011;67584;51.400;6.692;2023-07-29T11:40:18;2.00;;;1.60;;
78324;SDS011;67584;51.400;6.692;2023-07-29T11:42:45;2.63;;;1.80;;
78324;SDS011;67584;51.400;6.692;2023-07-29T11:45:12;2.85;;;2.28;;
78324;SDS011;67584;51.400;6.692;2023-07-29T11:47:38;2.65;;;2.13;;
78324;SDS011;67584;51.400;6.692;2023-07-29T11:50:05;2.35;;;1.77;;
78324;SDS011;67584;51.400;6.692;2023-07-29T11:52:37;2.08;;;1.88;;
78324;SDS011;67584;51.400;6.692;2023-07-29T11:55:04;2.67;;;1.90;;
78324;SDS011;67584;51.400;6.692;2023-07-29T11:57:31;2.78;;;1.80;;
78324;SDS011;67584;51.400;6.692;2023-07-29T12:00:01;4.63;;;1.98;;
78324;SDS011;67584;51.400;6.692;2023-07-29T12:02:34;2.05;;;1.75;;
78324;SDS011;67584;51.400;6.692;2023-07-29T12:05:02;1.75;;;1.55;;
78324;SDS011;67584;51.400;6.692;2023-07-29T12:07:29;2.30;;;1.70;;
78324;SDS011;67584;51.400;6.692;2023-07-29T12:09:55;8.27;;;2.03;;
78324;SDS011;67584;51.400;6.692;2023-07-29T12:12:24;4.35;;;1.85;;
78324;SDS011;67584;51.400;6.692;2023-07-29T12:14:50;2.50;;;1.83;;
78324;SDS011;67584;51.400;6.692;2023-07-29T12:17:15;2.47;;;1.70;;
78324;SDS011;67584;51.400;6.692;2023-07-29T12:19:42;2.80;;;1.75;;
78324;SDS011;67584;51.400;6.692;2023-07-29T12:22:08;3.28;;;1.92;;
78324;SDS011;67584;51.400;6.692;2023-07-29T12:24:35;2.70;;;1.90;;
78324;SDS011;67584;51.400;6.692;2023-07-29T12:29:29;4.45;;;1.90;;
78324;SDS011;67584;51.400;6.692;2023-07-29T12:31:58;2.50;;;1.73;;
78324;SDS011;67584;51.400;6.692;2023-07-29T12:34:25;1.73;;;1.63;;
78324;SDS011;67584;51.400;6.692;2023-07-29T12:39:24;2.97;;;1.90;;
78324;SDS011;67584;51.400;6.692;2023-07-29T12:41:55;2.00;;;1.80;;
78324;SDS011;67584;51.400;6.692;2023-07-29T12:44:22;2.13;;;1.75;;
78324;SDS011;67584;51.400;6.692;2023-07-29T12:46:48;2.38;;;1.90;;
78324;SDS011;67584;51.400;6.692;2023-07-29T12:49:14;1.70;;;1.58;;
78324;SDS011;67584;51.400;6.692;2023-07-29T12:51:40;2.35;;;1.80;;
78324;SDS011;67584;51.400;6.692;2023-07-29T12:54:06;2.30;;;1.98;;
78324;SDS011;67584;51.400;6.692;2023-07-29T12:56:32;3.08;;;1.88;;
78324;SDS011;67584;51.400;6.692;2023-07-29T12:58:58;2.08;;;1.77;;
78324;SDS011;67584;51.400;6.692;2023-07-29T13:01:25;2.25;;;1.67;;
78324;SDS011;67584;51.400;6.692;2023-07-29T13:03:51;2.40;;;1.70;;
78324;SDS011;67584;51.400;6.692;2023-07-29T13:06:17;3.70;;;2.00;;
78324;SDS011;67584;51.400;6.692;2023-07-29T13:08:43;2.53;;;1.83;;
78324;SDS011;67584;51.400;6.692;2023-07-29T13:11:09;2.92;;;2.03;;
78324;SDS011;67584;51.400;6.692;2023-07-29T13:13:35;2.60;;;2.00;;
78324;SDS011;67584;51.400;6.692;2023-07-29T13:16:00;2.67;;;2.10;;
78324;SDS011;67584;51.400;6.692;2023-07-29T13:18:26;1.98;;;1.70;;
78324;SDS011;67584;51.400;6.692;2023-07-29T13:20:52;2.45;;;1.92;;
78324;SDS011;67584;51.400;6.692;2023-07-29T13:23:18;4.35;;;1.95;;
78324;SDS011;67584;51.400;6.692;2023-07-29T13:25:44;2.60;;;1.88;;
78324;SDS011;67584;51.400;6.692;2023-07-29T13:28:10;3.78;;;1.63;;
78324;SDS011;67584;51.400;6.692;2023-07-29T13:30:36;4.13;;;2.20;;
78324;SDS011;67584;51.400;6.692;2023-07-29T13:33:02;2.40;;;2.00;;
78324;SDS011;67584;51.400;6.692;2023-07-29T13:35:28;1.83;;;1.73;;
78324;SDS011;67584;51.400;6.692;2023-07-29T13:37:54;3.42;;;2.10;;
78324;SDS011;67584;51.400;6.692;2023-07-29T13:40:20;4.28;;;2.40;;
78324;SDS011;67584;51.400;6.692;2023-07-29T13:42:46;3.88;;;2.10;;
78324;SDS011;67584;51.400;6.692;2023-07-29T13:45:11;3.63;;;2.05;;
78324;SDS011;67584;51.400;6.692;2023-07-29T13:47:37;3.03;;;2.10;;
78324;SDS011;67584;51.400;6.692;2023-07-29T13:50:03;2.92;;;2.20;;
78324;SDS011;67584;51.400;6.692;2023-07-29T13:52:29;3.25;;;2.08;;
78324;SDS011;67584;51.400;6.692;2023-07-29T13:54:54;2.85;;;2.28;;
78324;SDS011;67584;51.400;6.692;2023-07-29T13:57:20;3.67;;;1.90;;
78324;SDS011;67584;51.400;6.692;2023-07-29T13:59:46;2.83;;;2.17;;
78324;SDS011;67584;51.400;6.692;2023-07-29T14:02:11;3.45;;;2.13;;
78324;SDS011;67584;51.400;6.692;2023-07-29T14:04:37;4.43;;;2.60;;
78324;SDS011;67584;51.400;6.692;2023-07-29T14:07:03;2.97;;;2.40;;
78324;SDS011;67584;51.400;6.692;2023-07-29T14:09:29;3.40;;;2.53;;
78324;SDS011;67584;51.400;6.692;2023-07-29T14:11:55;3.47;;;2.40;;
78324;SDS011;67584;51.400;6.692;2023-07-29T14:14:20;3.67;;;2.33;;
78324;SDS011;67584;51.400;6.692;2023-07-29T14:16:46;3.38;;;2.70;;
78324;SDS011;67584;51.400;6.692;2023-07-29T14:19:12;3.65;;;2.60;;
78324;SDS011;67584;51.400;6.692;2023-07-29T14:21:38;3.35;;;2.45;;
78324;SDS011;67584;51.400;6.692;2023-07-29T14:24:04;3.92;;;2.33;;
78324;SDS011;67584;51.400;6.692;2023-07-29T14:26:30;3.35;;;2.55;;
78324;SDS011;67584;51.400;6.692;2023-07-29T14:28:56;3.20;;;2.00;;
78324;SDS011;67584;51.400;6.692;2023-07-29T14:31:21;3.58;;;2.10;;
78324;SDS011;67584;51.400;6.692;2023-07-29T14:33:47;2.33;;;1.83;;
78324;SDS011;67584;51.400;6.692;2023-07-29T14:36:14;2.90;;;2.08;;
78324;SDS011;67584;51.400;6.692;2023-07-29T14:38:40;3.85;;;2.33;;
78324;SDS011;67584;51.400;6.692;2023-07-29T14:41:05;4.53;;;2.38;;
78324;SDS011;67584;51.400;6.692;2023-07-29T14:43:31;2.90;;;2.53;;
78324;SDS011;67584;51.400;6.692;2023-07-29T14:45:57;4.53;;;2.28;;
78324;SDS011;67584;51.400;6.692;2023-07-29T14:48:23;4.18;;;2.70;;
78324;SDS011;67584;51.400;6.692;2023-07-29T14:50:49;3.20;;;2.67;;
78324;SDS011;67584;51.400;6.692;2023-07-29T14:53:14;2.80;;;2.42;;
78324;SDS011;67584;51.400;6.692;2023-07-29T14:55:40;3.22;;;2.13;;
78324;SDS011;67584;51.400;6.692;2023-07-29T14:58:06;3.15;;;2.20;;
78324;SDS011;67584;51.400;6.692;2023-07-29T15:00:31;4.78;;;2.40;;
78324;SDS011;67584;51.400;6.692;2023-07-29T15:02:58;2.97;;;2.50;;
78324;SDS011;67584;51.400;6.692;2023-07-29T15:05:23;5.75;;;2.80;;